createdAt,value
2023-02-22T00:01:37.930Z,98257.88
2023-02-22T00:04:07.103Z,98260.13
2023-02-22T00:06:34.645Z,98258.59
2023-02-22T00:09:04.794Z,98259.88
2023-02-22T00:11:32.196Z,98266.19
2023-02-22T00:13:59.603Z,98262.31
2023-02-22T00:16:27.732Z,98265.47
2023-02-22T00:18:55.546Z,98261.09
2023-02-22T00:21:23.146Z,98260.69
2023-02-22T00:23:50.722Z,98260.53
2023-02-22T00:26:20.057Z,98260.25
2023-02-22T00:28:50.092Z,98265.13
2023-02-22T00:31:18.128Z,98265.56
2023-02-22T00:33:45.847Z,98259.53
2023-02-22T00:36:14.349Z,98258.75
2023-02-22T00:38:42.317Z,98255.59
2023-02-22T00:41:10.372Z,98258.63
2023-02-22T00:43:37.726Z,98256.94
2023-02-22T00:46:05.296Z,98258.09
2023-02-22T00:48:32.737Z,98249.50
2023-02-22T00:51:00.260Z,98260.44
2023-02-22T00:53:27.616Z,98257.25
2023-02-22T00:55:55.092Z,98251.97
2023-02-22T00:58:24.279Z,98253.53
2023-02-22T01:00:51.744Z,98240.97
2023-02-22T01:03:20.587Z,98244.69
2023-02-22T01:05:48.563Z,98237.72
2023-02-22T01:08:17.075Z,98235.16
2023-02-22T01:10:44.871Z,98228.28
2023-02-22T01:13:12.843Z,98232.69
2023-02-22T01:15:42.346Z,98230.09
2023-02-22T01:18:10.187Z,98225.19
2023-02-22T01:20:37.848Z,98229.06
2023-02-22T01:23:07.742Z,98225.66
2023-02-22T01:25:36.225Z,98224.97
2023-02-22T01:28:05.732Z,98226.25
2023-02-22T01:30:36.110Z,98222.03
2023-02-22T01:33:06.503Z,98223.91
2023-02-22T01:35:37.443Z,98215.06
2023-02-22T01:38:04.645Z,98215.00
2023-02-22T01:40:36.691Z,98208.34
2023-02-22T01:43:18.998Z,98199.28
2023-02-22T01:45:55.079Z,98207.22
2023-02-22T01:48:56.749Z,98199.13
2023-02-22T01:51:45.821Z,98200.81
2023-02-22T01:54:28.511Z,98191.44
2023-02-22T01:57:24.775Z,98185.88
2023-02-22T01:59:56.800Z,98186.78
2023-02-22T02:02:25.178Z,98189.13
2023-02-22T02:04:56.508Z,98194.97
2023-02-22T02:07:24.804Z,98196.09
2023-02-22T02:10:03.546Z,98180.34
2023-02-22T02:12:34.465Z,98183.84
2023-02-22T02:15:29.652Z,98185.66
2023-02-22T02:18:06.305Z,98188.72
2023-02-22T02:21:16.600Z,98187.22
2023-02-22T02:24:20.724Z,98179.91
2023-02-22T02:27:23.096Z,98169.16
2023-02-22T02:30:18.293Z,98168.84
2023-02-22T02:33:13.020Z,98166.16
2023-02-22T02:36:03.358Z,98160.84
2023-02-22T02:38:47.309Z,98163.19
2023-02-22T02:41:39.823Z,98156.00
2023-02-22T02:44:22.487Z,98152.34
2023-02-22T02:47:08.030Z,98153.81
2023-02-22T02:49:51.709Z,98147.63
2023-02-22T02:52:21.119Z,98150.03
2023-02-22T02:54:49.392Z,98137.84
2023-02-22T02:57:16.761Z,98147.50
2023-02-22T02:59:43.877Z,98146.81
2023-02-22T03:02:55.825Z,98141.59
2023-02-22T03:05:48.091Z,98144.91
2023-02-22T03:08:40.953Z,98136.91
2023-02-22T03:11:17.429Z,98135.25
2023-02-22T03:14:12.118Z,98130.06
2023-02-22T03:17:18.556Z,98126.22
2023-02-22T03:19:52.833Z,98124.88
2023-02-22T03:23:08.084Z,98125.66
2023-02-22T03:25:43.649Z,98116.50
2023-02-22T03:28:14.816Z,98116.75
2023-02-22T03:30:49.279Z,98116.06
2023-02-22T03:33:33.850Z,98117.69
2023-02-22T03:36:14.529Z,98117.00
2023-02-22T03:38:43.088Z,98118.03
2023-02-22T03:41:18.020Z,98109.16
2023-02-22T03:43:51.062Z,98115.97
2023-02-22T03:46:21.784Z,98109.69
2023-02-22T03:49:00.331Z,98107.78
2023-02-22T03:51:31.898Z,98102.97
2023-02-22T03:54:01.310Z,98104.56
2023-02-22T03:56:47.103Z,98105.00
2023-02-22T03:59:14.740Z,98105.50
2023-02-22T04:01:42.109Z,98105.44
2023-02-22T04:04:09.098Z,98094.94
2023-02-22T04:06:37.998Z,98105.28
2023-02-22T04:09:05.277Z,98105.66
2023-02-22T04:11:32.668Z,98101.06
2023-02-22T04:14:00.785Z,98101.78
2023-02-22T04:16:28.311Z,98110.38
2023-02-22T04:18:55.580Z,98110.22
2023-02-22T04:21:23.349Z,98108.31
2023-02-22T04:23:51.199Z,98104.25
2023-02-22T04:26:18.626Z,98102.50
2023-02-22T04:28:51.166Z,98094.50
2023-02-22T04:31:19.983Z,98099.31
2023-02-22T04:33:47.553Z,98089.50
2023-02-22T04:36:18.309Z,98096.59
2023-02-22T04:38:46.066Z,98096.78
2023-02-22T04:41:13.964Z,98088.53
2023-02-22T04:43:41.915Z,98089.31
2023-02-22T04:46:16.078Z,98091.78
2023-02-22T04:48:43.476Z,98092.72
2023-02-22T04:51:10.584Z,98091.41
2023-02-22T04:53:41.813Z,98092.19
2023-02-22T04:56:08.958Z,98087.19
2023-02-22T04:58:35.946Z,98089.59
2023-02-22T05:01:03.223Z,98090.03
2023-02-22T05:03:30.505Z,98094.13
2023-02-22T05:05:57.567Z,98084.94
2023-02-22T05:08:24.520Z,98092.13
2023-02-22T05:10:51.495Z,98082.56
2023-02-22T05:13:18.417Z,98072.16
2023-02-22T05:15:45.545Z,98076.59
2023-02-22T05:18:12.643Z,98068.91
2023-02-22T05:20:39.640Z,98067.47
2023-02-22T05:23:06.636Z,98070.31
2023-02-22T05:25:34.098Z,98074.97
2023-02-22T05:28:05.516Z,98070.94
2023-02-22T05:30:36.134Z,98069.16
2023-02-22T05:33:03.144Z,98073.09
2023-02-22T05:35:30.593Z,98066.19
2023-02-22T05:37:59.729Z,98070.59
2023-02-22T05:40:27.863Z,98067.91
2023-02-22T05:42:55.159Z,98060.34
2023-02-22T05:45:26.414Z,98066.94
2023-02-22T05:47:55.049Z,98062.34
2023-02-22T05:50:22.449Z,98062.50
2023-02-22T05:52:49.717Z,98059.69
2023-02-22T05:55:20.318Z,98064.31
2023-02-22T05:57:47.511Z,98068.34
2023-02-22T06:00:28.162Z,98063.97
2023-02-22T06:03:01.676Z,98066.78
2023-02-22T06:05:29.617Z,98059.22
2023-02-22T06:07:58.247Z,98059.31
2023-02-22T06:10:26.983Z,98057.59
2023-02-22T06:12:55.192Z,98057.03
2023-02-22T06:15:24.771Z,98061.19
2023-02-22T06:17:52.920Z,98058.78
2023-02-22T06:20:23.234Z,98055.25
2023-02-22T06:22:52.140Z,98057.91
2023-02-22T06:25:24.083Z,98059.16
2023-02-22T06:27:51.556Z,98064.03
2023-02-22T06:30:22.287Z,98073.25
2023-02-22T06:32:49.871Z,98072.69
2023-02-22T06:35:17.566Z,98069.56
2023-02-22T06:37:45.238Z,98073.16
2023-02-22T06:40:13.194Z,98062.25
2023-02-22T06:42:40.928Z,98065.63
2023-02-22T06:45:09.396Z,98067.03
2023-02-22T06:47:43.564Z,98075.47
2023-02-22T06:50:30.322Z,98078.09
2023-02-22T06:52:58.611Z,98080.53
2023-02-22T06:55:29.490Z,98074.84
2023-02-22T06:57:56.778Z,98080.06
2023-02-22T07:00:26.098Z,98081.44
2023-02-22T07:02:54.352Z,98083.94
2023-02-22T07:05:23.226Z,98082.78
2023-02-22T07:07:54.260Z,98087.06
2023-02-22T07:10:28.827Z,98081.53
2023-02-22T07:12:55.927Z,98099.53
2023-02-22T07:15:26.028Z,98091.16
2023-02-22T07:17:53.788Z,98096.28
2023-02-22T07:20:22.719Z,98094.53
2023-02-22T07:22:50.159Z,98098.00
2023-02-22T07:25:17.501Z,98101.13
2023-02-22T07:27:44.731Z,98104.78
2023-02-22T07:30:34.177Z,98094.78
2023-02-22T07:33:07.157Z,98095.28
2023-02-22T07:35:48.864Z,98089.59
2023-02-22T07:38:18.191Z,98102.91
2023-02-22T07:40:45.738Z,98098.94
2023-02-22T07:43:31.104Z,98107.66
2023-02-22T07:46:02.857Z,98116.44
2023-02-22T07:48:32.056Z,98131.75
2023-02-22T07:50:59.687Z,98133.53
2023-02-22T07:53:30.354Z,98139.25
2023-02-22T07:55:58.564Z,98131.44
2023-02-22T07:58:28.520Z,98130.84
2023-02-22T08:00:56.111Z,98132.03
2023-02-22T08:03:26.028Z,98129.69
2023-02-22T08:05:55.919Z,98134.56
2023-02-22T08:08:23.658Z,98139.72
2023-02-22T08:10:52.058Z,98135.47
2023-02-22T08:13:19.905Z,98134.94
2023-02-22T08:15:49.478Z,98131.34
2023-02-22T08:18:19.680Z,98134.72
2023-02-22T08:20:49.111Z,98128.84
2023-02-22T08:23:18.360Z,98130.38
2023-02-22T08:25:45.526Z,98137.25
2023-02-22T08:28:17.556Z,98137.53
2023-02-22T08:30:44.578Z,98136.41
2023-02-22T08:33:15.945Z,98136.81
2023-02-22T08:35:43.224Z,98140.09
2023-02-22T08:38:20.438Z,98138.03
2023-02-22T08:40:48.923Z,98133.75
2023-02-22T08:43:16.715Z,98133.28
2023-02-22T08:45:45.763Z,98133.94
2023-02-22T08:48:14.191Z,98127.66
2023-02-22T08:50:41.991Z,98126.69
2023-02-22T08:53:11.527Z,98127.63
2023-02-22T08:55:39.870Z,98121.34
2023-02-22T08:58:10.517Z,98116.72
2023-02-22T09:00:39.538Z,98120.88
2023-02-22T09:03:10.451Z,98114.97
2023-02-22T09:05:37.817Z,98114.19
2023-02-22T09:08:05.216Z,98108.19
2023-02-22T09:10:34.461Z,98104.91
2023-02-22T09:13:04.279Z,98104.91
2023-02-22T09:15:34.050Z,98110.00
2023-02-22T09:18:01.152Z,98109.63
2023-02-22T09:20:29.240Z,98108.03
2023-02-22T09:22:56.646Z,98106.47
2023-02-22T09:25:24.016Z,98107.94
2023-02-22T09:27:55.652Z,98106.25
2023-02-22T09:30:32.244Z,98099.25
2023-02-22T09:33:09.948Z,98093.06
2023-02-22T09:35:42.229Z,98098.25
2023-02-22T09:38:11.434Z,98104.75
2023-02-22T09:40:46.238Z,98094.34
2023-02-22T09:43:21.974Z,98089.38
2023-02-22T09:46:21.113Z,98082.41
2023-02-22T09:49:18.004Z,98090.78
2023-02-22T09:52:18.789Z,98093.41
2023-02-22T09:54:58.104Z,98087.78
2023-02-22T09:57:35.784Z,98085.53
2023-02-22T10:00:23.451Z,98084.47
2023-02-22T10:03:25.259Z,98080.38
2023-02-22T10:06:10.632Z,98083.50
2023-02-22T10:08:38.859Z,98079.78
2023-02-22T10:11:23.510Z,98074.09
2023-02-22T10:14:36.601Z,98075.59
2023-02-22T10:17:22.342Z,98077.53
2023-02-22T10:20:07.163Z,98067.84
2023-02-22T10:22:39.698Z,98071.31
2023-02-22T10:25:18.044Z,98072.72
2023-02-22T10:28:03.995Z,98064.50
2023-02-22T10:30:41.859Z,98077.50
2023-02-22T10:33:22.707Z,98069.09
2023-02-22T10:35:53.650Z,98072.53
2023-02-22T10:38:32.736Z,98059.41
2023-02-22T10:41:24.094Z,98067.03
2023-02-22T10:43:51.114Z,98060.38
2023-02-22T10:46:22.538Z,98054.66
2023-02-22T10:48:54.569Z,98051.00
2023-02-22T10:51:21.935Z,98047.09
2023-02-22T10:54:13.692Z,98047.50
2023-02-22T10:56:58.025Z,98043.97
2023-02-22T10:59:35.765Z,98044.66
2023-02-22T11:02:27.568Z,98034.78
2023-02-22T11:04:58.715Z,98037.34
2023-02-22T11:07:30.970Z,98040.94
2023-02-22T11:10:02.175Z,98033.72
2023-02-22T11:12:34.191Z,98023.00
2023-02-22T11:15:29.001Z,98019.34
2023-02-22T11:17:57.788Z,98021.72
2023-02-22T11:20:38.391Z,98016.09
2023-02-22T11:23:08.326Z,98015.22
2023-02-22T11:25:39.721Z,98012.25
2023-02-22T11:28:32.901Z,98010.66
2023-02-22T11:31:15.620Z,98008.84
2023-02-22T11:36:43.105Z,97998.88
2023-02-22T11:39:27.026Z,97997.53
2023-02-22T11:41:56.715Z,97993.06
2023-02-22T11:44:32.403Z,97988.91
2023-02-22T11:47:06.870Z,97987.22
2023-02-22T11:49:39.732Z,97980.16
2023-02-22T11:52:34.721Z,97980.66
2023-02-22T11:55:09.772Z,97979.53
2023-02-22T11:57:52.324Z,97980.78
2023-02-22T12:00:26.098Z,97979.81
2023-02-22T12:03:14.761Z,97988.19
2023-02-22T12:06:32.076Z,97977.66
2023-02-22T12:09:27.000Z,97975.69
2023-02-22T12:12:43.726Z,97974.47
2023-02-22T12:15:34.799Z,97968.16
2023-02-22T12:18:23.213Z,97967.94
2023-02-22T12:21:06.082Z,97958.53
2023-02-22T12:24:02.525Z,97952.94
2023-02-22T12:26:43.394Z,97948.75
2023-02-22T12:29:27.635Z,97953.88
2023-02-22T12:32:38.105Z,97949.03
2023-02-22T12:35:21.344Z,97950.63
2023-02-22T12:38:14.955Z,97949.00
2023-02-22T12:41:08.878Z,97949.22
2023-02-22T12:43:41.247Z,97949.19
2023-02-22T12:46:24.078Z,97946.53
2023-02-22T12:49:39.485Z,97950.50
2023-02-22T12:52:41.981Z,97944.38
2023-02-22T12:55:31.690Z,97942.06
2023-02-22T12:58:46.727Z,97948.31
2023-02-22T13:01:22.154Z,97940.84
2023-02-22T13:03:49.324Z,97945.81
2023-02-22T13:06:57.140Z,97942.81
2023-02-22T13:10:12.771Z,97933.31
2023-02-22T13:13:27.815Z,97934.81
2023-02-22T13:16:21.817Z,97929.63
2023-02-22T13:19:04.551Z,97926.53
2023-02-22T13:21:58.211Z,97925.00
2023-02-22T13:24:30.326Z,97930.66
2023-02-22T13:27:08.820Z,97924.44
2023-02-22T13:29:44.901Z,97924.41
2023-02-22T13:33:03.286Z,97919.38
2023-02-22T13:35:41.991Z,97924.94
2023-02-22T13:38:43.413Z,97919.78
2023-02-22T13:41:41.348Z,97919.44
2023-02-22T13:44:45.142Z,97908.78
2023-02-22T13:47:46.299Z,97912.22
2023-02-22T13:50:52.410Z,97913.16
2023-02-22T13:53:30.432Z,97908.94
2023-02-22T13:56:00.809Z,97908.97
2023-02-22T13:58:27.996Z,97905.81
2023-02-22T14:00:58.314Z,97903.06
2023-02-22T14:03:36.340Z,97914.03
2023-02-22T14:06:06.976Z,97915.44
2023-02-22T14:08:33.840Z,97922.28
2023-02-22T14:11:07.281Z,97920.78
2023-02-22T14:13:53.757Z,97922.81
2023-02-22T14:16:27.664Z,97916.25
2023-02-22T14:19:13.333Z,97916.78
2023-02-22T14:22:03.732Z,97920.28
2023-02-22T14:24:47.765Z,97917.06
2023-02-22T14:27:17.558Z,97915.84
2023-02-22T14:29:55.196Z,97917.41
2023-02-22T14:32:32.644Z,97918.03
2023-02-22T14:35:17.199Z,97910.53
2023-02-22T14:37:59.215Z,97915.81
2023-02-22T14:40:33.295Z,97913.75
2023-02-22T14:43:19.999Z,97911.47
2023-02-22T14:45:53.584Z,97902.84
2023-02-22T14:48:39.290Z,97908.72
2023-02-22T14:51:26.515Z,97910.16
2023-02-22T14:54:03.908Z,97900.50
2023-02-22T14:56:44.290Z,97903.34
2023-02-22T14:59:20.700Z,97903.69
2023-02-22T15:02:01.535Z,97904.84
2023-02-22T15:04:31.448Z,97899.69
2023-02-22T15:07:00.874Z,97901.16
2023-02-22T15:09:37.293Z,97903.50
2023-02-22T15:12:04.086Z,97898.81
2023-02-22T15:14:37.723Z,97905.66
2023-02-22T15:17:16.222Z,97900.47
2023-02-22T15:19:43.229Z,97909.97
2023-02-22T15:22:26.964Z,97899.47
2023-02-22T15:25:01.351Z,97896.13
2023-02-22T15:27:29.130Z,97904.41
2023-02-22T15:30:04.486Z,97906.38
2023-02-22T15:32:53.257Z,97909.53
2023-02-22T15:35:31.061Z,97911.16
2023-02-22T15:38:03.989Z,97916.56
2023-02-22T15:40:33.243Z,97917.97
2023-02-22T15:43:04.316Z,97914.50
2023-02-22T15:45:34.655Z,97919.38
2023-02-22T15:48:03.189Z,97923.44
2023-02-22T15:50:35.027Z,97919.00
2023-02-22T15:53:02.008Z,97914.56
2023-02-22T15:55:38.819Z,97908.09
2023-02-22T15:58:14.539Z,97914.09
2023-02-22T16:01:05.745Z,97918.59
2023-02-22T16:03:44.992Z,97922.47
2023-02-22T16:06:35.268Z,97930.78
2023-02-22T16:09:26.003Z,97925.72
2023-02-22T16:12:21.829Z,97933.50
2023-02-22T16:14:50.013Z,97926.75
2023-02-22T16:17:46.869Z,97932.81
2023-02-22T16:20:24.818Z,97932.81
2023-02-22T16:22:51.787Z,97930.47
2023-02-22T16:25:18.693Z,97932.56
2023-02-22T16:27:52.672Z,97925.19
2023-02-22T16:30:28.888Z,97919.34
2023-02-22T16:32:57.388Z,97916.78
2023-02-22T16:35:29.421Z,97921.53
2023-02-22T16:38:16.643Z,97925.44
2023-02-22T16:40:50.535Z,97927.59
2023-02-22T16:43:23.915Z,97931.53
2023-02-22T16:45:52.827Z,97932.81
2023-02-22T16:48:25.239Z,97930.03
2023-02-22T16:50:54.485Z,97936.19
2023-02-22T16:53:24.461Z,97934.53
2023-02-22T16:55:57.920Z,97941.47
2023-02-22T16:58:29.287Z,97937.88
2023-02-22T17:00:57.481Z,97943.16
2023-02-22T17:03:25.880Z,97940.88
2023-02-22T17:05:53.710Z,97940.00
2023-02-22T17:08:21.255Z,97944.38
2023-02-22T17:10:51.514Z,97941.59
2023-02-22T17:13:26.628Z,97939.91
2023-02-22T17:15:54.991Z,97944.09
2023-02-22T17:18:23.807Z,97953.69
2023-02-22T17:20:52.645Z,97954.28
2023-02-22T17:23:20.511Z,97948.19
2023-02-22T17:25:55.236Z,97957.91
2023-02-22T17:28:24.409Z,97953.44
2023-02-22T17:30:53.090Z,97960.22
2023-02-22T17:33:26.691Z,97959.00
2023-02-22T17:35:56.316Z,97949.50
2023-02-22T17:38:23.819Z,97951.94
2023-02-22T17:40:57.308Z,97958.78
2023-02-22T17:43:26.079Z,97965.06
2023-02-22T17:45:53.859Z,97976.50
2023-02-22T17:48:23.912Z,97976.53
2023-02-22T17:50:52.256Z,97975.91
2023-02-22T17:53:22.769Z,97971.41
2023-02-22T17:55:50.503Z,97970.53
2023-02-22T17:58:18.496Z,97985.53
2023-02-22T18:00:48.099Z,97982.19
2023-02-22T18:03:25.436Z,97978.59
2023-02-22T18:05:56.332Z,97970.22
2023-02-22T18:08:25.401Z,97972.97
2023-02-22T18:10:56.377Z,97976.34
2023-02-22T18:13:26.366Z,97974.69
2023-02-22T18:15:53.837Z,97977.44
2023-02-22T18:18:22.148Z,97986.31
2023-02-22T18:20:51.442Z,97979.34
2023-02-22T18:23:22.216Z,97982.25
2023-02-22T18:26:09.094Z,97982.50
2023-02-22T18:28:37.491Z,97987.63
2023-02-22T18:31:09.508Z,97985.13
2023-02-22T18:33:37.160Z,97985.72
2023-02-22T18:36:05.025Z,97977.06
2023-02-22T18:38:32.498Z,97978.41
2023-02-22T18:41:05.329Z,97984.50
2023-02-22T18:43:35.303Z,97982.03
2023-02-22T18:46:13.918Z,97981.44
2023-02-22T18:48:41.703Z,97978.19
2023-02-22T18:51:11.479Z,97981.19
2023-02-22T18:53:40.950Z,97981.53
2023-02-22T18:56:10.848Z,97978.19
2023-02-22T18:58:38.952Z,97977.56
2023-02-22T19:01:12.146Z,97981.50
2023-02-22T19:03:39.597Z,97982.28
2023-02-22T19:06:11.417Z,97980.72
2023-02-22T19:08:40.622Z,97978.59
2023-02-22T19:11:10.425Z,97977.88
2023-02-22T19:13:38.421Z,97975.13
2023-02-22T19:16:07.456Z,97976.09
2023-02-22T19:18:34.947Z,97974.78
2023-02-22T19:21:03.724Z,97974.19
2023-02-22T19:23:34.466Z,97973.06
2023-02-22T19:26:03.868Z,97972.78
2023-02-22T19:28:34.379Z,97972.81
2023-02-22T19:31:18.582Z,97974.53
2023-02-22T19:33:47.823Z,97969.03
2023-02-22T19:36:16.204Z,97980.56
2023-02-22T19:38:43.920Z,97974.97
2023-02-22T19:41:15.433Z,97971.94
2023-02-22T19:43:43.524Z,97979.13
2023-02-22T19:46:11.736Z,97984.59
2023-02-22T19:48:39.380Z,97981.84
2023-02-22T19:51:11.805Z,97986.06
2023-02-22T19:53:40.968Z,97976.75
2023-02-22T19:56:13.043Z,97981.75
2023-02-22T19:58:41.384Z,97987.84
2023-02-22T20:01:15.812Z,97982.25
2023-02-22T20:03:43.659Z,97989.00
2023-02-22T20:06:11.963Z,97979.13
2023-02-22T20:08:42.151Z,97977.16
2023-02-22T20:11:10.505Z,97990.50
2023-02-22T20:13:41.692Z,97990.88
2023-02-22T20:16:10.071Z,97990.97
2023-02-22T20:18:37.710Z,97988.44
2023-02-22T20:21:13.931Z,97990.66
2023-02-22T20:23:44.206Z,97992.53
2023-02-22T20:26:20.570Z,97998.72
2023-02-22T20:28:48.100Z,97999.66
2023-02-22T20:31:16.658Z,98000.88
2023-02-22T20:33:48.898Z,97992.84
2023-02-22T20:36:17.943Z,97997.56
2023-02-22T20:38:45.969Z,98003.84
2023-02-22T20:41:16.508Z,98005.84
2023-02-22T20:43:44.249Z,97996.97
2023-02-22T20:46:11.704Z,97997.97
2023-02-22T20:48:39.069Z,98001.03
2023-02-22T20:51:11.138Z,97999.88
2023-02-22T20:53:44.739Z,97996.09
2023-02-22T20:56:23.150Z,98002.06
2023-02-22T20:58:50.966Z,98003.97
2023-02-22T21:01:20.090Z,98004.22
2023-02-22T21:03:48.114Z,98006.38
2023-02-22T21:06:17.732Z,97994.75
2023-02-22T21:08:46.198Z,97991.41
2023-02-22T21:11:15.345Z,97989.41
2023-02-22T21:13:43.220Z,97994.91
2023-02-22T21:16:17.204Z,97989.78
2023-02-22T21:18:44.568Z,97998.22
2023-02-22T21:21:12.581Z,97996.13
2023-02-22T21:23:42.909Z,97997.03
2023-02-22T21:26:17.624Z,97999.66
2023-02-22T21:28:51.401Z,97998.63
2023-02-22T21:31:20.290Z,97992.19
2023-02-22T21:33:50.629Z,97997.16
2023-02-22T21:36:19.022Z,97998.59
2023-02-22T21:38:53.228Z,97997.03
2023-02-22T21:41:23.520Z,98003.22
2023-02-22T21:43:51.650Z,97999.00
2023-02-22T21:46:19.676Z,97996.28
2023-02-22T21:48:50.315Z,97993.34
2023-02-22T21:51:21.321Z,97991.16
2023-02-22T21:53:52.106Z,97988.69
2023-02-22T21:56:24.263Z,97992.53
2023-02-22T21:58:59.099Z,97986.84
2023-02-22T22:01:28.465Z,97999.06
2023-02-22T22:03:59.442Z,97990.75
2023-02-22T22:06:28.213Z,97992.53
2023-02-22T22:08:55.843Z,97987.50
2023-02-22T22:11:25.020Z,97990.56
2023-02-22T22:13:57.321Z,97989.00
2023-02-22T22:16:27.115Z,97986.88
2023-02-22T22:18:55.525Z,97992.22
2023-02-22T22:21:24.175Z,97989.59
2023-02-22T22:23:55.901Z,97989.00
2023-02-22T22:26:24.683Z,97983.75
2023-02-22T22:28:56.035Z,97981.41
2023-02-22T22:31:25.965Z,97993.50
2023-02-22T22:33:54.511Z,97980.88
2023-02-22T22:36:22.877Z,97982.94
2023-02-22T22:38:52.554Z,97986.50
2023-02-22T22:41:21.985Z,97984.28
2023-02-22T22:43:49.342Z,97984.72
2023-02-22T22:46:17.930Z,97983.81
2023-02-22T22:48:47.248Z,97979.69
2023-02-22T22:51:19.973Z,97983.00
2023-02-22T22:53:48.989Z,97981.66
2023-02-22T22:56:25.929Z,97987.09
2023-02-22T22:58:55.588Z,97979.03
2023-02-22T23:01:32.564Z,97983.06
2023-02-22T23:04:02.400Z,97980.31
2023-02-22T23:06:32.969Z,97972.97
2023-02-22T23:09:15.274Z,97981.66
2023-02-22T23:11:50.583Z,97983.66
2023-02-22T23:14:24.031Z,97984.88
2023-02-22T23:16:53.365Z,97985.00
2023-02-22T23:19:20.726Z,97983.88
2023-02-22T23:21:49.923Z,97988.78
2023-02-22T23:24:19.658Z,97983.53
2023-02-22T23:26:50.357Z,97984.81
2023-02-22T23:29:19.381Z,97986.06
2023-02-22T23:31:48.432Z,97986.72
2023-02-22T23:34:18.377Z,97994.91
2023-02-22T23:36:46.693Z,97986.09
2023-02-22T23:39:15.727Z,97984.25
2023-02-22T23:41:43.059Z,97989.28
2023-02-22T23:44:17.441Z,97986.47
2023-02-22T23:46:48.451Z,97985.94
2023-02-22T23:49:20.646Z,97993.19
2023-02-22T23:51:48.789Z,97991.41
2023-02-22T23:54:19.501Z,97992.22
2023-02-22T23:56:56.158Z,97984.66
2023-02-22T23:59:25.194Z,97997.69
